sensor_id;sensor_type;location;lat;lon;timestamp;temperature;humidity
32600;DHT22;19277;51.778;7.912;2023-02-28T00:00:34;19.70;79.40
32600;DHT22;19277;51.778;7.912;2023-02-28T00:03:01;19.70;79.50
32600;DHT22;19277;51.778;7.912;2023-02-28T00:05:27;19.70;79.40
32600;DHT22;19277;51.778;7.912;2023-02-28T00:07:54;19.70;79.50
32600;DHT22;19277;51.778;7.912;2023-02-28T00:10:22;19.70;79.60
32600;DHT22;19277;51.778;7.912;2023-02-28T00:12:52;19.70;79.70
32600;DHT22;19277;51.778;7.912;2023-02-28T00:15:18;19.70;79.70
32600;DHT22;19277;51.778;7.912;2023-02-28T00:17:44;19.70;79.80
32600;DHT22;19277;51.778;7.912;2023-02-28T00:20:11;19.70;79.80
32600;DHT22;19277;51.778;7.912;2023-02-28T00:22:45;19.70;79.90
32600;DHT22;19277;51.778;7.912;2023-02-28T00:25:14;19.60;79.90
32600;DHT22;19277;51.778;7.912;2023-02-28T00:27:40;19.60;79.90
32600;DHT22;19277;51.778;7.912;2023-02-28T00:30:09;19.60;79.90
32600;DHT22;19277;51.778;7.912;2023-02-28T00:32:35;19.60;80.00
32600;DHT22;19277;51.778;7.912;2023-02-28T00:35:01;19.60;79.90
32600;DHT22;19277;51.778;7.912;2023-02-28T00:37:27;19.60;80.00
32600;DHT22;19277;51.778;7.912;2023-02-28T00:39:52;19.60;80.10
32600;DHT22;19277;51.778;7.912;2023-02-28T00:42:18;19.60;80.10
32600;DHT22;19277;51.778;7.912;2023-02-28T00:44:43;19.60;80.20
32600;DHT22;19277;51.778;7.912;2023-02-28T00:47:09;19.50;80.20
32600;DHT22;19277;51.778;7.912;2023-02-28T00:49:35;19.50;80.20
32600;DHT22;19277;51.778;7.912;2023-02-28T00:52:00;19.50;80.20
32600;DHT22;19277;51.778;7.912;2023-02-28T00:54:26;19.50;80.20
32600;DHT22;19277;51.778;7.912;2023-02-28T00:56:52;19.50;80.20
32600;DHT22;19277;51.778;7.912;2023-02-28T00:59:18;19.50;80.30
32600;DHT22;19277;51.778;7.912;2023-02-28T01:01:45;19.50;80.20
32600;DHT22;19277;51.778;7.912;2023-02-28T01:04:12;19.50;80.20
32600;DHT22;19277;51.778;7.912;2023-02-28T01:06:37;19.50;80.30
32600;DHT22;19277;51.778;7.912;2023-02-28T01:09:04;19.50;80.30
32600;DHT22;19277;51.778;7.912;2023-02-28T01:11:31;19.50;80.30
32600;DHT22;19277;51.778;7.912;2023-02-28T01:13:56;19.50;80.30
32600;DHT22;19277;51.778;7.912;2023-02-28T01:16:22;19.50;80.30
32600;DHT22;19277;51.778;7.912;2023-02-28T01:18:47;19.50;80.40
32600;DHT22;19277;51.778;7.912;2023-02-28T01:21:16;19.50;80.40
32600;DHT22;19277;51.778;7.912;2023-02-28T01:23:42;19.50;80.40
32600;DHT22;19277;51.778;7.912;2023-02-28T01:26:14;19.40;80.30
32600;DHT22;19277;51.778;7.912;2023-02-28T01:28:41;19.50;80.50
32600;DHT22;19277;51.778;7.912;2023-02-28T01:31:07;19.50;80.60
32600;DHT22;19277;51.778;7.912;2023-02-28T01:33:33;19.50;80.50
32600;DHT22;19277;51.778;7.912;2023-02-28T01:36:00;19.50;80.50
32600;DHT22;19277;51.778;7.912;2023-02-28T01:38:26;19.50;80.50
32600;DHT22;19277;51.778;7.912;2023-02-28T01:40:52;19.50;80.50
32600;DHT22;19277;51.778;7.912;2023-02-28T01:43:23;19.50;80.60
32600;DHT22;19277;51.778;7.912;2023-02-28T01:45:50;19.50;80.60
32600;DHT22;19277;51.778;7.912;2023-02-28T01:48:15;19.50;80.70
32600;DHT22;19277;51.778;7.912;2023-02-28T01:50:43;19.50;80.60
32600;DHT22;19277;51.778;7.912;2023-02-28T01:53:14;19.50;80.60
32600;DHT22;19277;51.778;7.912;2023-02-28T01:55:42;19.50;80.70
32600;DHT22;19277;51.778;7.912;2023-02-28T01:58:10;19.50;80.60
32600;DHT22;19277;51.778;7.912;2023-02-28T02:00:36;19.50;80.70
32600;DHT22;19277;51.778;7.912;2023-02-28T02:03:13;19.50;80.80
32600;DHT22;19277;51.778;7.912;2023-02-28T02:05:40;19.40;80.80
32600;DHT22;19277;51.778;7.912;2023-02-28T02:08:15;19.40;80.80
32600;DHT22;19277;51.778;7.912;2023-02-28T02:10:53;19.40;80.80
32600;DHT22;19277;51.778;7.912;2023-02-28T02:13:29;19.40;80.90
32600;DHT22;19277;51.778;7.912;2023-02-28T02:18:42;19.40;81.00
32600;DHT22;19277;51.778;7.912;2023-02-28T02:27:16;19.40;81.00
32600;DHT22;19277;51.778;7.912;2023-02-28T02:34:59;19.40;81.30
32600;DHT22;19277;51.778;7.912;2023-02-28T02:40:21;19.40;81.10
32600;DHT22;19277;51.778;7.912;2023-02-28T02:42:51;19.30;81.10
32600;DHT22;19277;51.778;7.912;2023-02-28T02:45:36;19.40;81.30
32600;DHT22;19277;51.778;7.912;2023-02-28T02:48:06;19.40;81.20
32600;DHT22;19277;51.778;7.912;2023-02-28T02:50:37;19.30;81.10
32600;DHT22;19277;51.778;7.912;2023-02-28T02:53:04;19.30;81.10
32600;DHT22;19277;51.778;7.912;2023-02-28T02:55:33;19.30;81.20
32600;DHT22;19277;51.778;7.912;2023-02-28T02:58:02;19.30;81.20
32600;DHT22;19277;51.778;7.912;2023-02-28T03:00:35;19.30;81.20
32600;DHT22;19277;51.778;7.912;2023-02-28T03:03:03;19.30;81.10
32600;DHT22;19277;51.778;7.912;2023-02-28T03:05:49;19.30;81.10
32600;DHT22;19277;51.778;7.912;2023-02-28T03:08:15;19.30;81.20
32600;DHT22;19277;51.778;7.912;2023-02-28T03:10:45;19.30;81.20
32600;DHT22;19277;51.778;7.912;2023-02-28T03:13:49;19.30;81.20
32600;DHT22;19277;51.778;7.912;2023-02-28T03:30:29;19.30;81.20
32600;DHT22;19277;51.778;7.912;2023-02-28T03:33:00;19.30;81.20
32600;DHT22;19277;51.778;7.912;2023-02-28T03:35:38;19.30;81.30
32600;DHT22;19277;51.778;7.912;2023-02-28T03:38:12;19.20;81.40
32600;DHT22;19277;51.778;7.912;2023-02-28T03:40:44;19.20;81.50
32600;DHT22;19277;51.778;7.912;2023-02-28T03:43:18;19.30;81.60
32600;DHT22;19277;51.778;7.912;2023-02-28T03:45:45;19.30;81.70
32600;DHT22;19277;51.778;7.912;2023-02-28T03:48:18;19.20;81.60
32600;DHT22;19277;51.778;7.912;2023-02-28T03:50:47;19.30;81.60
32600;DHT22;19277;51.778;7.912;2023-02-28T03:56:05;19.20;81.50
32600;DHT22;19277;51.778;7.912;2023-02-28T03:58:37;19.20;81.50
32600;DHT22;19277;51.778;7.912;2023-02-28T04:01:08;19.20;81.40
32600;DHT22;19277;51.778;7.912;2023-02-28T04:03:38;19.20;81.40
32600;DHT22;19277;51.778;7.912;2023-02-28T04:06:07;19.20;81.50
32600;DHT22;19277;51.778;7.912;2023-02-28T04:08:33;19.20;82.10
32600;DHT22;19277;51.778;7.912;2023-02-28T04:11:14;19.20;81.60
32600;DHT22;19277;51.778;7.912;2023-02-28T04:13:41;19.20;81.90
32600;DHT22;19277;51.778;7.912;2023-02-28T04:16:08;19.20;81.80
32600;DHT22;19277;51.778;7.912;2023-02-28T04:18:41;19.20;81.90
32600;DHT22;19277;51.778;7.912;2023-02-28T04:21:09;19.20;81.80
32600;DHT22;19277;51.778;7.912;2023-02-28T04:23:35;19.10;81.90
32600;DHT22;19277;51.778;7.912;2023-02-28T04:26:00;19.20;82.00
32600;DHT22;19277;51.778;7.912;2023-02-28T04:28:26;19.20;82.00
32600;DHT22;19277;51.778;7.912;2023-02-28T04:31:02;19.10;82.10
32600;DHT22;19277;51.778;7.912;2023-02-28T04:33:29;19.20;82.20
32600;DHT22;19277;51.778;7.912;2023-02-28T04:36:06;19.10;82.40
32600;DHT22;19277;51.778;7.912;2023-02-28T04:38:34;19.10;82.50
32600;DHT22;19277;51.778;7.912;2023-02-28T04:41:00;19.20;82.60
32600;DHT22;19277;51.778;7.912;2023-02-28T04:43:27;19.20;82.60
32600;DHT22;19277;51.778;7.912;2023-02-28T04:45:54;19.10;82.80
32600;DHT22;19277;51.778;7.912;2023-02-28T04:48:27;19.20;82.90
32600;DHT22;19277;51.778;7.912;2023-02-28T04:50:53;19.20;82.90
32600;DHT22;19277;51.778;7.912;2023-02-28T04:53:20;19.10;82.70
32600;DHT22;19277;51.778;7.912;2023-02-28T04:55:46;19.20;83.20
32600;DHT22;19277;51.778;7.912;2023-02-28T04:58:13;19.10;83.20
32600;DHT22;19277;51.778;7.912;2023-02-28T05:00:39;19.10;83.20
32600;DHT22;19277;51.778;7.912;2023-02-28T05:03:04;19.10;83.20
32600;DHT22;19277;51.778;7.912;2023-02-28T05:05:30;19.10;83.30
32600;DHT22;19277;51.778;7.912;2023-02-28T05:07:56;19.10;83.40
32600;DHT22;19277;51.778;7.912;2023-02-28T05:10:24;19.10;83.70
32600;DHT22;19277;51.778;7.912;2023-02-28T05:12:50;19.10;83.60
32600;DHT22;19277;51.778;7.912;2023-02-28T05:15:16;19.10;83.70
32600;DHT22;19277;51.778;7.912;2023-02-28T05:17:42;19.10;83.80
32600;DHT22;19277;51.778;7.912;2023-02-28T05:20:09;19.10;83.70
32600;DHT22;19277;51.778;7.912;2023-02-28T05:22:42;19.10;84.10
32600;DHT22;19277;51.778;7.912;2023-02-28T05:25:12;19.20;84.40
32600;DHT22;19277;51.778;7.912;2023-02-28T05:27:38;19.20;84.50
32600;DHT22;19277;51.778;7.912;2023-02-28T05:30:05;19.20;84.30
32600;DHT22;19277;51.778;7.912;2023-02-28T05:32:31;19.20;84.30
32600;DHT22;19277;51.778;7.912;2023-02-28T05:34:57;19.20;84.20
32600;DHT22;19277;51.778;7.912;2023-02-28T05:37:22;19.30;84.20
32600;DHT22;19277;51.778;7.912;2023-02-28T05:39:48;19.30;84.80
32600;DHT22;19277;51.778;7.912;2023-02-28T05:42:13;19.30;84.40
32600;DHT22;19277;51.778;7.912;2023-02-28T05:44:39;19.30;84.20
32600;DHT22;19277;51.778;7.912;2023-02-28T05:47:05;19.30;84.20
32600;DHT22;19277;51.778;7.912;2023-02-28T05:49:30;19.30;84.30
32600;DHT22;19277;51.778;7.912;2023-02-28T05:51:56;19.30;84.50
32600;DHT22;19277;51.778;7.912;2023-02-28T05:54:21;19.30;84.50
32600;DHT22;19277;51.778;7.912;2023-02-28T05:56:47;19.30;84.50
32600;DHT22;19277;51.778;7.912;2023-02-28T05:59:13;19.20;84.40
32600;DHT22;19277;51.778;7.912;2023-02-28T06:01:41;19.30;84.70
32600;DHT22;19277;51.778;7.912;2023-02-28T06:04:09;19.30;84.90
32600;DHT22;19277;51.778;7.912;2023-02-28T06:06:35;19.20;84.80
32600;DHT22;19277;51.778;7.912;2023-02-28T06:09:03;19.20;85.00
32600;DHT22;19277;51.778;7.912;2023-02-28T06:11:29;19.20;85.00
32600;DHT22;19277;51.778;7.912;2023-02-28T06:13:58;19.20;85.20
32600;DHT22;19277;51.778;7.912;2023-02-28T06:16:29;19.20;85.20
32600;DHT22;19277;51.778;7.912;2023-02-28T06:18:58;19.20;85.30
32600;DHT22;19277;51.778;7.912;2023-02-28T06:21:24;19.20;85.40
32600;DHT22;19277;51.778;7.912;2023-02-28T06:23:50;19.20;85.40
32600;DHT22;19277;51.778;7.912;2023-02-28T06:26:16;19.20;85.20
32600;DHT22;19277;51.778;7.912;2023-02-28T06:28:41;19.20;85.10
32600;DHT22;19277;51.778;7.912;2023-02-28T06:31:09;19.20;85.10
32600;DHT22;19277;51.778;7.912;2023-02-28T06:33:35;19.20;84.90
32600;DHT22;19277;51.778;7.912;2023-02-28T06:36:01;19.20;84.80
32600;DHT22;19277;51.778;7.912;2023-02-28T06:38:26;19.20;84.80
32600;DHT22;19277;51.778;7.912;2023-02-28T06:40:56;19.20;84.70
32600;DHT22;19277;51.778;7.912;2023-02-28T06:43:22;19.20;84.90
32600;DHT22;19277;51.778;7.912;2023-02-28T06:45:48;19.20;84.80
32600;DHT22;19277;51.778;7.912;2023-02-28T06:48:13;19.20;84.40
32600;DHT22;19277;51.778;7.912;2023-02-28T06:50:39;19.20;84.50
32600;DHT22;19277;51.778;7.912;2023-02-28T06:53:04;19.20;84.20
32600;DHT22;19277;51.778;7.912;2023-02-28T06:55:30;19.20;84.20
32600;DHT22;19277;51.778;7.912;2023-02-28T06:57:57;19.20;84.30
32600;DHT22;19277;51.778;7.912;2023-02-28T07:00:22;19.30;84.50
32600;DHT22;19277;51.778;7.912;2023-02-28T07:02:48;19.30;84.20
32600;DHT22;19277;51.778;7.912;2023-02-28T07:05:14;19.40;84.00
32600;DHT22;19277;51.778;7.912;2023-02-28T07:07:39;19.40;83.80
32600;DHT22;19277;51.778;7.912;2023-02-28T07:10:12;19.50;83.60
32600;DHT22;19277;51.778;7.912;2023-02-28T07:12:40;19.50;83.40
32600;DHT22;19277;51.778;7.912;2023-02-28T07:15:06;19.60;83.30
32600;DHT22;19277;51.778;7.912;2023-02-28T07:17:31;19.60;83.10
32600;DHT22;19277;51.778;7.912;2023-02-28T07:19:57;19.70;83.00
32600;DHT22;19277;51.778;7.912;2023-02-28T07:22:23;19.70;82.70
32600;DHT22;19277;51.778;7.912;2023-02-28T07:24:48;19.70;82.50
32600;DHT22;19277;51.778;7.912;2023-02-28T07:27:14;19.70;82.10
32600;DHT22;19277;51.778;7.912;2023-02-28T07:29:52;19.70;81.80
32600;DHT22;19277;51.778;7.912;2023-02-28T07:32:19;19.70;81.60
32600;DHT22;19277;51.778;7.912;2023-02-28T07:34:45;19.70;81.40
32600;DHT22;19277;51.778;7.912;2023-02-28T07:37:11;19.70;81.30
32600;DHT22;19277;51.778;7.912;2023-02-28T07:39:36;19.70;81.20
32600;DHT22;19277;51.778;7.912;2023-02-28T07:42:05;19.70;81.10
32600;DHT22;19277;51.778;7.912;2023-02-28T07:44:31;19.70;81.00
32600;DHT22;19277;51.778;7.912;2023-02-28T07:46:57;19.90;83.30
32600;DHT22;19277;51.778;7.912;2023-02-28T07:49:23;20.10;80.70
32600;DHT22;19277;51.778;7.912;2023-02-28T07:51:49;20.30;79.90
32600;DHT22;19277;51.778;7.912;2023-02-28T07:54:14;20.50;79.20
32600;DHT22;19277;51.778;7.912;2023-02-28T07:56:40;20.70;78.70
32600;DHT22;19277;51.778;7.912;2023-02-28T07:59:05;20.80;78.20
32600;DHT22;19277;51.778;7.912;2023-02-28T08:01:31;20.90;77.80
32600;DHT22;19277;51.778;7.912;2023-02-28T08:03:56;21.00;77.50
32600;DHT22;19277;51.778;7.912;2023-02-28T08:06:24;21.00;76.00
32600;DHT22;19277;51.778;7.912;2023-02-28T08:08:50;21.00;75.40
32600;DHT22;19277;51.778;7.912;2023-02-28T08:11:17;21.10;75.20
32600;DHT22;19277;51.778;7.912;2023-02-28T08:13:43;21.10;74.90
32600;DHT22;19277;51.778;7.912;2023-02-28T08:16:09;21.10;74.70
32600;DHT22;19277;51.778;7.912;2023-02-28T08:18:35;21.20;76.00
32600;DHT22;19277;51.778;7.912;2023-02-28T08:21:06;21.30;76.00
32600;DHT22;19277;51.778;7.912;2023-02-28T08:23:32;21.40;75.70
32600;DHT22;19277;51.778;7.912;2023-02-28T08:25:58;21.40;75.30
32600;DHT22;19277;51.778;7.912;2023-02-28T08:28:24;21.40;75.20
32600;DHT22;19277;51.778;7.912;2023-02-28T08:30:50;21.40;75.80
32600;DHT22;19277;51.778;7.912;2023-02-28T08:33:15;21.30;75.00
32600;DHT22;19277;51.778;7.912;2023-02-28T08:35:41;21.30;75.50
32600;DHT22;19277;51.778;7.912;2023-02-28T08:38:07;21.30;75.40
32600;DHT22;19277;51.778;7.912;2023-02-28T08:40:32;21.30;75.50
32600;DHT22;19277;51.778;7.912;2023-02-28T08:42:58;21.30;75.60
32600;DHT22;19277;51.778;7.912;2023-02-28T08:45:24;21.30;75.80
32600;DHT22;19277;51.778;7.912;2023-02-28T08:47:50;21.30;75.80
32600;DHT22;19277;51.778;7.912;2023-02-28T08:50:17;21.20;75.70
32600;DHT22;19277;51.778;7.912;2023-02-28T08:52:44;21.20;75.90
32600;DHT22;19277;51.778;7.912;2023-02-28T08:55:10;21.20;75.90
32600;DHT22;19277;51.778;7.912;2023-02-28T08:57:35;21.20;76.10
32600;DHT22;19277;51.778;7.912;2023-02-28T09:00:02;21.20;76.10
32600;DHT22;19277;51.778;7.912;2023-02-28T09:02:30;21.20;76.00
32600;DHT22;19277;51.778;7.912;2023-02-28T09:04:57;21.20;76.10
32600;DHT22;19277;51.778;7.912;2023-02-28T09:07:23;21.20;76.10
32600;DHT22;19277;51.778;7.912;2023-02-28T09:09:49;21.20;76.20
32600;DHT22;19277;51.778;7.912;2023-02-28T09:12:27;21.20;76.40
32600;DHT22;19277;51.778;7.912;2023-02-28T09:14:57;21.20;76.30
32600;DHT22;19277;51.778;7.912;2023-02-28T09:17:22;21.20;76.30
32600;DHT22;19277;51.778;7.912;2023-02-28T09:19:49;21.20;76.30
32600;DHT22;19277;51.778;7.912;2023-02-28T09:22:15;21.20;76.40
32600;DHT22;19277;51.778;7.912;2023-02-28T09:24:41;21.20;76.40
32600;DHT22;19277;51.778;7.912;2023-02-28T09:27:06;21.20;76.60
32600;DHT22;19277;51.778;7.912;2023-02-28T09:29:33;21.20;76.70
32600;DHT22;19277;51.778;7.912;2023-02-28T09:31:59;21.20;76.90
32600;DHT22;19277;51.778;7.912;2023-02-28T09:34:28;21.20;77.00
32600;DHT22;19277;51.778;7.912;2023-02-28T09:36:56;21.10;76.70
32600;DHT22;19277;51.778;7.912;2023-02-28T09:39:22;21.20;77.10
32600;DHT22;19277;51.778;7.912;2023-02-28T09:41:51;21.20;77.20
32600;DHT22;19277;51.778;7.912;2023-02-28T09:46:53;21.20;77.20
32600;DHT22;19277;51.778;7.912;2023-02-28T09:49:23;21.20;77.20
32600;DHT22;19277;51.778;7.912;2023-02-28T09:51:58;21.30;77.30
32600;DHT22;19277;51.778;7.912;2023-02-28T09:54:28;21.30;77.10
32600;DHT22;19277;51.778;7.912;2023-02-28T10:05:09;21.50;76.90
32600;DHT22;19277;51.778;7.912;2023-02-28T10:12:52;21.50;75.00
32600;DHT22;19277;51.778;7.912;2023-02-28T10:15:19;21.50;76.00
32600;DHT22;19277;51.778;7.912;2023-02-28T10:17:48;21.60;76.10
32600;DHT22;19277;51.778;7.912;2023-02-28T10:20:21;21.60;76.10
32600;DHT22;19277;51.778;7.912;2023-02-28T10:22:52;21.60;76.00
32600;DHT22;19277;51.778;7.912;2023-02-28T10:25:24;21.70;76.20
32600;DHT22;19277;51.778;7.912;2023-02-28T10:27:54;21.70;76.10
32600;DHT22;19277;51.778;7.912;2023-02-28T10:30:19;21.80;76.10
32600;DHT22;19277;51.778;7.912;2023-02-28T10:32:50;21.80;75.60
32600;DHT22;19277;51.778;7.912;2023-02-28T10:35:24;21.90;75.40
32600;DHT22;19277;51.778;7.912;2023-02-28T10:37:53;21.90;73.80
32600;DHT22;19277;51.778;7.912;2023-02-28T10:43:11;22.00;73.80
32600;DHT22;19277;51.778;7.912;2023-02-28T10:45:55;22.00;71.40
32600;DHT22;19277;51.778;7.912;2023-02-28T10:53:35;22.00;72.80
32600;DHT22;19277;51.778;7.912;2023-02-28T11:01:44;22.00;71.80
32600;DHT22;19277;51.778;7.912;2023-02-28T11:06:44;22.00;73.00
32600;DHT22;19277;51.778;7.912;2023-02-28T11:09:25;22.00;71.30
32600;DHT22;19277;51.778;7.912;2023-02-28T11:11:52;22.00;71.30
32600;DHT22;19277;51.778;7.912;2023-02-28T11:14:24;22.00;72.60
32600;DHT22;19277;51.778;7.912;2023-02-28T11:16:51;22.00;72.70
32600;DHT22;19277;51.778;7.912;2023-02-28T11:19:26;22.10;72.20
32600;DHT22;19277;51.778;7.912;2023-02-28T11:22:04;22.00;72.40
32600;DHT22;19277;51.778;7.912;2023-02-28T11:24:37;22.00;70.80
32600;DHT22;19277;51.778;7.912;2023-02-28T11:29:54;22.00;71.40
32600;DHT22;19277;51.778;7.912;2023-02-28T11:32:27;22.00;71.40
32600;DHT22;19277;51.778;7.912;2023-02-28T11:35:18;21.90;70.90
32600;DHT22;19277;51.778;7.912;2023-02-28T11:37:47;21.90;68.40
32600;DHT22;19277;51.778;7.912;2023-02-28T11:40:21;21.90;69.40
32600;DHT22;19277;51.778;7.912;2023-02-28T11:48:08;21.90;67.90
32600;DHT22;19277;51.778;7.912;2023-02-28T11:53:32;21.90;66.70
32600;DHT22;19277;51.778;7.912;2023-02-28T11:56:31;21.90;69.30
32600;DHT22;19277;51.778;7.912;2023-02-28T12:01:36;21.90;70.20
32600;DHT22;19277;51.778;7.912;2023-02-28T12:04:22;21.80;69.40
32600;DHT22;19277;51.778;7.912;2023-02-28T12:20:38;21.60;70.50
32600;DHT22;19277;51.778;7.912;2023-02-28T12:28:49;21.70;71.70
32600;DHT22;19277;51.778;7.912;2023-02-28T12:33:50;21.70;72.20
32600;DHT22;19277;51.778;7.912;2023-02-28T12:36:19;21.70;72.20
32600;DHT22;19277;51.778;7.912;2023-02-28T12:38:56;21.70;72.50
32600;DHT22;19277;51.778;7.912;2023-02-28T12:41:40;21.80;72.90
32600;DHT22;19277;51.778;7.912;2023-02-28T12:44:18;21.80;73.10
32600;DHT22;19277;51.778;7.912;2023-02-28T12:46:50;21.80;72.50
32600;DHT22;19277;51.778;7.912;2023-02-28T12:49:27;21.80;72.80
32600;DHT22;19277;51.778;7.912;2023-02-28T12:51:58;21.80;72.90
32600;DHT22;19277;51.778;7.912;2023-02-28T12:54:49;21.90;72.90
32600;DHT22;19277;51.778;7.912;2023-02-28T12:57:43;21.90;73.00
32600;DHT22;19277;51.778;7.912;2023-02-28T13:00:17;21.90;73.20
32600;DHT22;19277;51.778;7.912;2023-02-28T13:05:49;21.90;73.10
32600;DHT22;19277;51.778;7.912;2023-02-28T13:17:03;21.90;73.00
32600;DHT22;19277;51.778;7.912;2023-02-28T13:19:44;21.90;73.10
32600;DHT22;19277;51.778;7.912;2023-02-28T13:24:52;21.90;73.30
32600;DHT22;19277;51.778;7.912;2023-02-28T13:29:52;21.90;73.40
32600;DHT22;19277;51.778;7.912;2023-02-28T13:51:47;22.00;73.20
32600;DHT22;19277;51.778;7.912;2023-02-28T13:59:54;22.00;73.40
32600;DHT22;19277;51.778;7.912;2023-02-28T14:07:49;22.00;73.80
32600;DHT22;19277;51.778;7.912;2023-02-28T14:13:00;21.90;73.80
32600;DHT22;19277;51.778;7.912;2023-02-28T14:17:53;22.00;73.90
32600;DHT22;19277;51.778;7.912;2023-02-28T14:20:21;22.00;73.90
32600;DHT22;19277;51.778;7.912;2023-02-28T14:22:51;22.00;73.80
32600;DHT22;19277;51.778;7.912;2023-02-28T14:25:36;22.00;73.80
32600;DHT22;19277;51.778;7.912;2023-02-28T14:36:21;22.00;73.90
32600;DHT22;19277;51.778;7.912;2023-02-28T14:39:05;22.00;73.80
32600;DHT22;19277;51.778;7.912;2023-02-28T14:41:37;22.00;74.00
32600;DHT22;19277;51.778;7.912;2023-02-28T14:44:16;22.00;74.00
32600;DHT22;19277;51.778;7.912;2023-02-28T14:46:43;22.00;74.00
32600;DHT22;19277;51.778;7.912;2023-02-28T14:49:35;22.00;73.90
32600;DHT22;19277;51.778;7.912;2023-02-28T14:52:17;22.00;73.80
32600;DHT22;19277;51.778;7.912;2023-02-28T14:54:44;22.00;74.00
32600;DHT22;19277;51.778;7.912;2023-02-28T14:57:29;22.00;73.80
32600;DHT22;19277;51.778;7.912;2023-02-28T15:02:34;22.00;74.50
32600;DHT22;19277;51.778;7.912;2023-02-28T15:07:35;22.10;74.40
32600;DHT22;19277;51.778;7.912;2023-02-28T15:10:27;22.10;73.90
32600;DHT22;19277;51.778;7.912;2023-02-28T15:12:53;22.10;74.40
32600;DHT22;19277;51.778;7.912;2023-02-28T15:15:22;22.10;73.90
32600;DHT22;19277;51.778;7.912;2023-02-28T15:17:53;22.10;73.90
32600;DHT22;19277;51.778;7.912;2023-02-28T15:20:20;22.10;73.90
32600;DHT22;19277;51.778;7.912;2023-02-28T15:22:48;22.10;73.90
32600;DHT22;19277;51.778;7.912;2023-02-28T15:25:18;22.10;73.90
32600;DHT22;19277;51.778;7.912;2023-02-28T15:27:49;22.10;74.00
32600;DHT22;19277;51.778;7.912;2023-02-28T15:30:27;22.10;74.00
32600;DHT22;19277;51.778;7.912;2023-02-28T15:33:23;22.10;74.10
32600;DHT22;19277;51.778;7.912;2023-02-28T15:35:50;22.10;74.10
32600;DHT22;19277;51.778;7.912;2023-02-28T15:38:26;22.10;74.00
32600;DHT22;19277;51.778;7.912;2023-02-28T15:40:58;22.10;74.00
32600;DHT22;19277;51.778;7.912;2023-02-28T15:43:25;22.10;74.10
32600;DHT22;19277;51.778;7.912;2023-02-28T15:48:33;22.10;74.10
32600;DHT22;19277;51.778;7.912;2023-02-28T15:54:06;22.10;74.20
32600;DHT22;19277;51.778;7.912;2023-02-28T15:56:38;22.10;74.30
32600;DHT22;19277;51.778;7.912;2023-02-28T15:59:07;22.10;74.30
32600;DHT22;19277;51.778;7.912;2023-02-28T16:01:39;22.10;74.30
32600;DHT22;19277;51.778;7.912;2023-02-28T16:04:15;22.10;74.40
32600;DHT22;19277;51.778;7.912;2023-02-28T16:07:04;22.10;74.40
32600;DHT22;19277;51.778;7.912;2023-02-28T16:09:30;22.10;74.10
32600;DHT22;19277;51.778;7.912;2023-02-28T16:12:00;22.00;74.20
32600;DHT22;19277;51.778;7.912;2023-02-28T16:14:27;22.00;74.40
32600;DHT22;19277;51.778;7.912;2023-02-28T16:17:01;22.00;74.40
32600;DHT22;19277;51.778;7.912;2023-02-28T16:19:28;22.00;74.40
32600;DHT22;19277;51.778;7.912;2023-02-28T16:21:54;22.00;74.40
32600;DHT22;19277;51.778;7.912;2023-02-28T16:24:19;22.00;74.40
32600;DHT22;19277;51.778;7.912;2023-02-28T16:26:47;22.00;74.40
32600;DHT22;19277;51.778;7.912;2023-02-28T16:29:20;22.00;74.40
32600;DHT22;19277;51.778;7.912;2023-02-28T16:31:48;22.00;74.40
32600;DHT22;19277;51.778;7.912;2023-02-28T16:34:13;22.00;74.40
32600;DHT22;19277;51.778;7.912;2023-02-28T16:36:39;22.00;74.40
32600;DHT22;19277;51.778;7.912;2023-02-28T16:39:05;22.00;74.30
32600;DHT22;19277;51.778;7.912;2023-02-28T16:41:31;22.00;74.30
32600;DHT22;19277;51.778;7.912;2023-02-28T16:43:58;22.00;74.40
32600;DHT22;19277;51.778;7.912;2023-02-28T16:46:34;22.00;74.50
32600;DHT22;19277;51.778;7.912;2023-02-28T16:49:00;22.00;74.30
32600;DHT22;19277;51.778;7.912;2023-02-28T16:51:26;22.00;74.30
32600;DHT22;19277;51.778;7.912;2023-02-28T16:53:51;22.00;74.70
32600;DHT22;19277;51.778;7.912;2023-02-28T16:56:22;21.90;74.70
32600;DHT22;19277;51.778;7.912;2023-02-28T16:58:49;21.90;74.90
32600;DHT22;19277;51.778;7.912;2023-02-28T17:01:15;21.80;74.90
32600;DHT22;19277;51.778;7.912;2023-02-28T17:03:41;21.80;75.10
32600;DHT22;19277;51.778;7.912;2023-02-28T17:06:25;21.70;75.10
32600;DHT22;19277;51.778;7.912;2023-02-28T17:08:51;21.70;75.10
32600;DHT22;19277;51.778;7.912;2023-02-28T17:11:18;21.60;75.20
32600;DHT22;19277;51.778;7.912;2023-02-28T17:13:43;21.60;75.30
32600;DHT22;19277;51.778;7.912;2023-02-28T17:16:27;21.60;75.30
32600;DHT22;19277;51.778;7.912;2023-02-28T17:18:59;21.60;75.40
32600;DHT22;19277;51.778;7.912;2023-02-28T17:21:25;21.50;75.50
32600;DHT22;19277;51.778;7.912;2023-02-28T17:23:51;21.50;75.60
32600;DHT22;19277;51.778;7.912;2023-02-28T17:26:18;21.50;75.60
32600;DHT22;19277;51.778;7.912;2023-02-28T17:28:53;21.50;75.80
32600;DHT22;19277;51.778;7.912;2023-02-28T17:31:21;21.50;76.20
32600;DHT22;19277;51.778;7.912;2023-02-28T17:33:47;21.50;76.20
32600;DHT22;19277;51.778;7.912;2023-02-28T17:36:31;21.50;76.30
32600;DHT22;19277;51.778;7.912;2023-02-28T17:38:59;21.50;76.00
32600;DHT22;19277;51.778;7.912;2023-02-28T17:41:25;21.50;75.70
32600;DHT22;19277;51.778;7.912;2023-02-28T17:43:52;21.50;75.70
32600;DHT22;19277;51.778;7.912;2023-02-28T17:46:19;21.60;75.70
32600;DHT22;19277;51.778;7.912;2023-02-28T17:48:47;21.60;75.70
32600;DHT22;19277;51.778;7.912;2023-02-28T17:51:13;21.60;75.70
32600;DHT22;19277;51.778;7.912;2023-02-28T17:53:39;21.60;75.70
32600;DHT22;19277;51.778;7.912;2023-02-28T17:56:10;21.60;75.60
32600;DHT22;19277;51.778;7.912;2023-02-28T17:58:36;21.60;75.60
32600;DHT22;19277;51.778;7.912;2023-02-28T18:01:01;21.60;75.50
32600;DHT22;19277;51.778;7.912;2023-02-28T18:03:27;21.60;75.50
32600;DHT22;19277;51.778;7.912;2023-02-28T18:05:53;21.60;75.60
32600;DHT22;19277;51.778;7.912;2023-02-28T18:08:19;21.60;75.60
32600;DHT22;19277;51.778;7.912;2023-02-28T18:10:45;21.60;75.60
32600;DHT22;19277;51.778;7.912;2023-02-28T18:13:10;21.60;75.70
32600;DHT22;19277;51.778;7.912;2023-02-28T18:15:38;21.60;75.80
32600;DHT22;19277;51.778;7.912;2023-02-28T18:18:03;21.60;75.80
32600;DHT22;19277;51.778;7.912;2023-02-28T18:20:29;21.50;75.80
32600;DHT22;19277;51.778;7.912;2023-02-28T18:22:54;21.50;75.80
32600;DHT22;19277;51.778;7.912;2023-02-28T18:25:20;21.50;75.90
32600;DHT22;19277;51.778;7.912;2023-02-28T18:27:47;21.50;75.90
32600;DHT22;19277;51.778;7.912;2023-02-28T18:30:22;21.50;76.00
32600;DHT22;19277;51.778;7.912;2023-02-28T18:32:47;21.50;75.90
32600;DHT22;19277;51.778;7.912;2023-02-28T18:35:13;21.50;75.90